sensor_id;sensor_type;location;lat;lon;timestamp;pressure;altitude;pressure_sealevel;temperature;humidity
61408;BME280;47274;43.054;25.146;2023-03-01T00:02:14;96221.09;;;2.58;100.00
61408;BME280;47274;43.054;25.146;2023-03-01T00:04:40;96175.63;;;2.23;100.00
61408;BME280;47274;43.054;25.146;2023-03-01T00:07:09;96151.88;;;2.08;100.00
61408;BME280;47274;43.054;25.146;2023-03-01T00:09:36;96215.38;;;2.54;100.00
61408;BME280;47274;43.054;25.146;2023-03-01T00:12:03;96222.81;;;2.57;100.00
61408;BME280;47274;43.054;25.146;2023-03-01T00:14:29;96186.34;;;2.44;100.00
61408;BME280;47274;43.054;25.146;2023-03-01T00:16:59;96184.06;;;2.40;100.00
61408;BME280;47274;43.054;25.146;2023-03-01T00:19:27;96201.22;;;2.50;100.00
61408;BME280;47274;43.054;25.146;2023-03-01T00:21:53;96267.94;;;2.82;100.00
61408;BME280;47274;43.054;25.146;2023-03-01T00:24:19;96172.13;;;2.26;100.00
61408;BME280;47274;43.054;25.146;2023-03-01T00:26:45;96258.38;;;2.72;100.00
61408;BME280;47274;43.054;25.146;2023-03-01T00:29:12;96235.16;;;2.64;100.00
61408;BME280;47274;43.054;25.146;2023-03-01T00:31:38;96208.69;;;2.53;100.00
61408;BME280;47274;43.054;25.146;2023-03-01T00:34:05;96244.88;;;2.87;100.00
61408;BME280;47274;43.054;25.146;2023-03-01T00:36:35;96250.97;;;2.84;100.00
61408;BME280;47274;43.054;25.146;2023-03-01T00:39:04;96127.06;;;1.99;100.00
61408;BME280;47274;43.054;25.146;2023-03-01T00:41:30;96157.59;;;2.29;100.00
61408;BME280;47274;43.054;25.146;2023-03-01T00:43:59;96176.78;;;2.49;100.00
61408;BME280;47274;43.054;25.146;2023-03-01T00:46:26;96114.81;;;2.07;100.00
61408;BME280;47274;43.054;25.146;2023-03-01T00:48:53;96210.78;;;2.77;100.00
61408;BME280;47274;43.054;25.146;2023-03-01T00:51:23;96103.41;;;2.16;100.00
61408;BME280;47274;43.054;25.146;2023-03-01T00:53:57;96211.94;;;2.87;100.00
61408;BME280;47274;43.054;25.146;2023-03-01T00:56:24;96211.28;;;2.83;100.00
61408;BME280;47274;43.054;25.146;2023-03-01T00:58:51;96204.75;;;2.79;100.00
61408;BME280;47274;43.054;25.146;2023-03-01T01:01:21;96206.22;;;2.83;100.00
61408;BME280;47274;43.054;25.146;2023-03-01T01:03:51;96184.28;;;2.67;100.00
61408;BME280;47274;43.054;25.146;2023-03-01T01:06:26;96156.69;;;2.46;100.00
61408;BME280;47274;43.054;25.146;2023-03-01T01:08:54;96213.91;;;2.82;100.00
61408;BME280;47274;43.054;25.146;2023-03-01T01:11:25;96187.25;;;2.59;100.00
61408;BME280;47274;43.054;25.146;2023-03-01T01:13:52;96207.84;;;2.69;100.00
61408;BME280;47274;43.054;25.146;2023-03-01T01:16:19;96233.38;;;2.81;100.00
61408;BME280;47274;43.054;25.146;2023-03-01T01:18:46;96222.41;;;2.81;100.00
61408;BME280;47274;43.054;25.146;2023-03-01T01:21:14;96219.28;;;2.76;100.00
61408;BME280;47274;43.054;25.146;2023-03-01T01:23:42;96152.75;;;2.41;100.00
61408;BME280;47274;43.054;25.146;2023-03-01T01:26:15;96142.13;;;2.34;100.00
61408;BME280;47274;43.054;25.146;2023-03-01T01:28:42;96103.06;;;2.06;100.00
61408;BME280;47274;43.054;25.146;2023-03-01T01:31:08;96155.78;;;2.47;100.00
61408;BME280;47274;43.054;25.146;2023-03-01T01:33:34;96122.19;;;2.28;100.00
61408;BME280;47274;43.054;25.146;2023-03-01T01:36:00;96206.22;;;2.83;100.00
61408;BME280;47274;43.054;25.146;2023-03-01T01:38:26;96164.84;;;2.51;100.00
61408;BME280;47274;43.054;25.146;2023-03-01T01:40:52;96136.50;;;2.45;100.00
61408;BME280;47274;43.054;25.146;2023-03-01T01:43:24;96199.50;;;2.82;100.00
61408;BME280;47274;43.054;25.146;2023-03-01T01:45:56;96179.91;;;2.70;100.00
61408;BME280;47274;43.054;25.146;2023-03-01T01:48:26;96187.09;;;2.78;100.00
61408;BME280;47274;43.054;25.146;2023-03-01T01:51:11;96183.75;;;2.77;100.00
61408;BME280;47274;43.054;25.146;2023-03-01T01:53:39;96161.84;;;2.60;100.00
61408;BME280;47274;43.054;25.146;2023-03-01T01:56:07;96204.16;;;2.90;100.00
61408;BME280;47274;43.054;25.146;2023-03-01T01:58:35;96203.19;;;2.93;100.00
61408;BME280;47274;43.054;25.146;2023-03-01T02:01:03;96203.28;;;2.91;100.00
61408;BME280;47274;43.054;25.146;2023-03-01T02:03:31;96084.03;;;2.15;100.00
61408;BME280;47274;43.054;25.146;2023-03-01T02:06:55;96193.47;;;2.85;100.00
61408;BME280;47274;43.054;25.146;2023-03-01T02:09:08;96155.72;;;2.65;100.00
61408;BME280;47274;43.054;25.146;2023-03-01T02:11:37;96205.72;;;2.93;100.00
61408;BME280;47274;43.054;25.146;2023-03-01T02:14:04;96137.00;;;2.51;100.00
61408;BME280;47274;43.054;25.146;2023-03-01T02:16:31;96118.44;;;2.35;100.00
61408;BME280;47274;43.054;25.146;2023-03-01T02:18:58;96101.44;;;2.21;100.00
61408;BME280;47274;43.054;25.146;2023-03-01T02:21:36;96208.34;;;2.91;100.00
61408;BME280;47274;43.054;25.146;2023-03-01T02:24:15;96144.69;;;2.50;100.00
61408;BME280;47274;43.054;25.146;2023-03-01T02:26:50;96200.31;;;2.83;100.00
61408;BME280;47274;43.054;25.146;2023-03-01T02:29:22;96069.25;;;1.92;100.00
61408;BME280;47274;43.054;25.146;2023-03-01T02:31:49;96116.81;;;2.34;100.00
61408;BME280;47274;43.054;25.146;2023-03-01T02:34:20;96188.56;;;2.82;100.00
61408;BME280;47274;43.054;25.146;2023-03-01T02:36:54;96076.84;;;2.07;100.00
61408;BME280;47274;43.054;25.146;2023-03-01T02:39:32;96075.28;;;2.05;100.00
61408;BME280;47274;43.054;25.146;2023-03-01T02:42:01;96112.72;;;2.31;100.00
61408;BME280;47274;43.054;25.146;2023-03-01T02:44:28;96141.09;;;2.54;100.00
61408;BME280;47274;43.054;25.146;2023-03-01T02:46:56;96133.00;;;2.47;100.00
61408;BME280;47274;43.054;25.146;2023-03-01T02:49:28;96137.00;;;2.51;100.00
61408;BME280;47274;43.054;25.146;2023-03-01T02:52:23;96191.91;;;2.82;100.00
61408;BME280;47274;43.054;25.146;2023-03-01T02:55:16;96155.88;;;2.61;100.00
61408;BME280;47274;43.054;25.146;2023-03-01T02:57:45;96190.44;;;2.78;100.00
61408;BME280;47274;43.054;25.146;2023-03-01T03:00:15;96190.28;;;2.81;100.00
61408;BME280;47274;43.054;25.146;2023-03-01T03:02:46;96176.53;;;2.70;100.00
61408;BME280;47274;43.054;25.146;2023-03-01T03:05:27;96200.00;;;2.73;100.00
61408;BME280;47274;43.054;25.146;2023-03-01T03:07:56;96190.59;;;2.75;100.00
61408;BME280;47274;43.054;25.146;2023-03-01T03:10:25;96195.03;;;2.72;100.00
61408;BME280;47274;43.054;25.146;2023-03-01T03:12:55;96180.06;;;2.67;100.00
61408;BME280;47274;43.054;25.146;2023-03-01T03:15:22;96157.75;;;2.58;100.00
61408;BME280;47274;43.054;25.146;2023-03-01T03:17:52;96162.06;;;2.56;100.00
61408;BME280;47274;43.054;25.146;2023-03-01T03:20:20;96149.16;;;2.45;100.00
61408;BME280;47274;43.054;25.146;2023-03-01T03:22:49;96156.94;;;2.57;100.00
61408;BME280;47274;43.054;25.146;2023-03-01T03:25:17;96189.69;;;2.76;100.00
61408;BME280;47274;43.054;25.146;2023-03-01T03:27:44;96192.88;;;2.80;100.00
61408;BME280;47274;43.054;25.146;2023-03-01T03:30:13;96194.06;;;2.74;100.00
61408;BME280;47274;43.054;25.146;2023-03-01T03:32:41;96193.88;;;2.77;100.00
61408;BME280;47274;43.054;25.146;2023-03-01T03:35:12;96161.75;;;2.62;100.00
61408;BME280;47274;43.054;25.146;2023-03-01T03:37:39;96164.22;;;2.64;100.00
61408;BME280;47274;43.054;25.146;2023-03-01T03:40:26;96117.94;;;2.28;100.00
61408;BME280;47274;43.054;25.146;2023-03-01T03:42:52;96157.84;;;2.56;100.00
61408;BME280;47274;43.054;25.146;2023-03-01T03:45:19;96167.72;;;2.61;100.00
61408;BME280;47274;43.054;25.146;2023-03-01T03:47:45;96186.44;;;2.74;100.00
61408;BME280;47274;43.054;25.146;2023-03-01T03:50:14;96189.03;;;2.73;100.00
61408;BME280;47274;43.054;25.146;2023-03-01T03:52:40;96165.34;;;2.58;100.00
61408;BME280;47274;43.054;25.146;2023-03-01T03:55:08;96165.91;;;2.63;100.00
61408;BME280;47274;43.054;25.146;2023-03-01T03:57:36;96181.59;;;2.70;100.00
61408;BME280;47274;43.054;25.146;2023-03-01T04:00:21;96150.56;;;2.50;100.00
61408;BME280;47274;43.054;25.146;2023-03-01T04:03:08;96189.13;;;2.71;100.00
61408;BME280;47274;43.054;25.146;2023-03-01T04:05:35;96180.63;;;2.72;100.00
61408;BME280;47274;43.054;25.146;2023-03-01T04:08:02;96180.88;;;2.68;100.00
61408;BME280;47274;43.054;25.146;2023-03-01T04:10:34;96177.94;;;2.59;100.00
61408;BME280;47274;43.054;25.146;2023-03-01T04:13:02;96153.16;;;2.49;100.00
61408;BME280;47274;43.054;25.146;2023-03-01T04:15:28;96155.47;;;2.53;100.00
61408;BME280;47274;43.054;25.146;2023-03-01T04:17:54;96166.31;;;2.55;100.00
61408;BME280;47274;43.054;25.146;2023-03-01T04:20:24;96187.03;;;2.64;100.00
61408;BME280;47274;43.054;25.146;2023-03-01T04:23:14;96176.63;;;2.68;100.00
61408;BME280;47274;43.054;25.146;2023-03-01T04:25:55;96179.22;;;2.67;100.00
61408;BME280;47274;43.054;25.146;2023-03-01T04:31:03;96189.56;;;2.64;100.00
61408;BME280;47274;43.054;25.146;2023-03-01T04:36:14;96163.88;;;2.54;100.00
61408;BME280;47274;43.054;25.146;2023-03-01T04:38:41;96192.81;;;2.66;100.00
61408;BME280;47274;43.054;25.146;2023-03-01T04:41:09;96087.28;;;2.01;100.00
61408;BME280;47274;43.054;25.146;2023-03-01T04:43:36;96162.22;;;2.53;100.00
61408;BME280;47274;43.054;25.146;2023-03-01T04:46:07;96174.19;;;2.51;100.00
61408;BME280;47274;43.054;25.146;2023-03-01T04:48:38;96150.28;;;2.39;100.00
61408;BME280;47274;43.054;25.146;2023-03-01T04:51:05;96167.66;;;2.47;100.00
61408;BME280;47274;43.054;25.146;2023-03-01T04:53:33;96183.91;;;2.58;100.00
61408;BME280;47274;43.054;25.146;2023-03-01T04:56:03;96177.44;;;2.53;100.00
61408;BME280;47274;43.054;25.146;2023-03-01T04:58:30;96165.59;;;2.53;100.00
61408;BME280;47274;43.054;25.146;2023-03-01T05:00:56;96113.03;;;2.25;100.00
61408;BME280;47274;43.054;25.146;2023-03-01T05:03:22;96184.28;;;2.67;100.00
61408;BME280;47274;43.054;25.146;2023-03-01T05:05:51;96196.75;;;2.71;100.00
61408;BME280;47274;43.054;25.146;2023-03-01T05:08:18;96184.41;;;2.65;100.00
61408;BME280;47274;43.054;25.146;2023-03-01T05:10:51;96194.22;;;2.71;100.00
61408;BME280;47274;43.054;25.146;2023-03-01T05:13:19;96146.56;;;2.46;100.00
61408;BME280;47274;43.054;25.146;2023-03-01T05:15:58;96184.13;;;2.70;100.00
61408;BME280;47274;43.054;25.146;2023-03-01T05:18:26;96069.63;;;1.84;100.00
61408;BME280;47274;43.054;25.146;2023-03-01T05:21:03;96193.72;;;2.65;100.00
61408;BME280;47274;43.054;25.146;2023-03-01T05:23:30;96164.53;;;2.42;100.00
61408;BME280;47274;43.054;25.146;2023-03-01T05:26:01;96098.66;;;2.10;100.00
61408;BME280;47274;43.054;25.146;2023-03-01T05:28:29;96058.13;;;1.94;100.00
61408;BME280;47274;43.054;25.146;2023-03-01T05:30:57;96104.06;;;2.20;100.00
61408;BME280;47274;43.054;25.146;2023-03-01T05:33:23;96094.88;;;2.01;100.00
61408;BME280;47274;43.054;25.146;2023-03-01T05:35:52;96145.06;;;2.42;100.00
61408;BME280;47274;43.054;25.146;2023-03-01T05:38:20;96113.19;;;2.22;100.00
61408;BME280;47274;43.054;25.146;2023-03-01T05:40:50;96128.34;;;2.40;100.00
61408;BME280;47274;43.054;25.146;2023-03-01T05:43:17;96147.28;;;2.48;100.00
61408;BME280;47274;43.054;25.146;2023-03-01T05:45:44;96153.91;;;2.51;100.00
61408;BME280;47274;43.054;25.146;2023-03-01T05:48:10;96091.38;;;2.04;100.00
61408;BME280;47274;43.054;25.146;2023-03-01T05:50:40;96131.91;;;2.35;100.00
61408;BME280;47274;43.054;25.146;2023-03-01T05:55:41;96109.22;;;2.34;100.00
61408;BME280;47274;43.054;25.146;2023-03-01T05:58:24;96203.50;;;2.87;100.00
61408;BME280;47274;43.054;25.146;2023-03-01T06:00:50;96073.66;;;2.04;100.00
61408;BME280;47274;43.054;25.146;2023-03-01T06:03:19;96145.91;;;2.58;100.00
61408;BME280;47274;43.054;25.146;2023-03-01T06:05:45;96151.06;;;2.57;100.00
61408;BME280;47274;43.054;25.146;2023-03-01T06:08:12;96077.59;;;2.09;100.00
61408;BME280;47274;43.054;25.146;2023-03-01T06:10:39;96088.38;;;2.13;100.00
61408;BME280;47274;43.054;25.146;2023-03-01T06:13:05;96136.09;;;2.52;100.00
61408;BME280;47274;43.054;25.146;2023-03-01T06:15:33;96178.03;;;2.74;100.00
61408;BME280;47274;43.054;25.146;2023-03-01T06:17:59;96083.88;;;2.18;100.00
61408;BME280;47274;43.054;25.146;2023-03-01T06:20:28;96155.88;;;2.61;100.00
61408;BME280;47274;43.054;25.146;2023-03-01T06:23:04;96125.81;;;2.40;100.00
61408;BME280;47274;43.054;25.146;2023-03-01T06:25:30;96124.16;;;2.38;100.00
61408;BME280;47274;43.054;25.146;2023-03-01T06:28:09;96160.03;;;2.63;100.00
61408;BME280;47274;43.054;25.146;2023-03-01T06:30:38;96166.75;;;2.64;100.00
61408;BME280;47274;43.054;25.146;2023-03-01T06:33:03;96129.00;;;2.43;100.00
61408;BME280;47274;43.054;25.146;2023-03-01T06:35:34;96206.22;;;2.99;100.00
61408;BME280;47274;43.054;25.146;2023-03-01T06:38:04;96207.94;;;2.99;100.00
61408;BME280;47274;43.054;25.146;2023-03-01T06:40:31;96209.66;;;2.98;100.00
61408;BME280;47274;43.054;25.146;2023-03-01T06:43:00;96080.69;;;2.14;100.00
61408;BME280;47274;43.054;25.146;2023-03-01T06:45:27;96088.38;;;2.13;100.00
61408;BME280;47274;43.054;25.146;2023-03-01T06:48:01;96100.06;;;2.16;100.00
61408;BME280;47274;43.054;25.146;2023-03-01T06:50:28;96130.03;;;2.39;100.00
61408;BME280;47274;43.054;25.146;2023-03-01T06:53:01;96216.69;;;2.93;100.00
61408;BME280;47274;43.054;25.146;2023-03-01T06:55:37;96219.97;;;2.95;100.00
61408;BME280;47274;43.054;25.146;2023-03-01T06:58:03;96133.16;;;2.44;100.00
61408;BME280;47274;43.054;25.146;2023-03-01T07:00:30;96162.06;;;2.72;100.00
61408;BME280;47274;43.054;25.146;2023-03-01T07:03:09;96221.09;;;3.05;100.00
61408;BME280;47274;43.054;25.146;2023-03-01T07:05:35;96103.19;;;2.36;100.00
61408;BME280;47274;43.054;25.146;2023-03-01T07:08:01;96101.63;;;2.34;100.00
61408;BME280;47274;43.054;25.146;2023-03-01T07:10:27;96151.34;;;2.67;100.00
61408;BME280;47274;43.054;25.146;2023-03-01T07:12:59;96092.22;;;2.36;100.00
61408;BME280;47274;43.054;25.146;2023-03-01T07:15:26;96171.16;;;2.92;100.00
61408;BME280;47274;43.054;25.146;2023-03-01T07:17:52;96091.66;;;2.47;100.00
61408;BME280;47274;43.054;25.146;2023-03-01T07:20:22;96114.03;;;2.70;100.00
61408;BME280;47274;43.054;25.146;2023-03-01T07:22:52;96138.03;;;2.79;100.00
61408;BME280;47274;43.054;25.146;2023-03-01T07:25:20;96142.69;;;2.87;100.00
61408;BME280;47274;43.054;25.146;2023-03-01T07:27:53;96117.22;;;2.74;100.00
61408;BME280;47274;43.054;25.146;2023-03-01T07:30:20;96121.91;;;2.80;100.00
61408;BME280;47274;43.054;25.146;2023-03-01T07:32:46;96211.66;;;3.39;100.00
61408;BME280;47274;43.054;25.146;2023-03-01T07:35:12;96173.13;;;3.17;100.00
61408;BME280;47274;43.054;25.146;2023-03-01T07:37:38;96116.19;;;2.76;100.00
61408;BME280;47274;43.054;25.146;2023-03-01T07:40:04;96120.28;;;2.79;100.00
61408;BME280;47274;43.054;25.146;2023-03-01T07:42:30;96095.38;;;2.55;100.00
61408;BME280;47274;43.054;25.146;2023-03-01T07:44:56;96123.75;;;2.78;100.00
61408;BME280;47274;43.054;25.146;2023-03-01T07:47:22;96171.19;;;3.06;100.00
61408;BME280;47274;43.054;25.146;2023-03-01T07:49:48;96114.16;;;2.83;100.00
61408;BME280;47274;43.054;25.146;2023-03-01T07:52:14;96199.66;;;3.41;100.00
61408;BME280;47274;43.054;25.146;2023-03-01T07:54:42;96082.63;;;2.73;100.00
61408;BME280;47274;43.054;25.146;2023-03-01T07:57:09;96110.78;;;2.98;100.00
61408;BME280;47274;43.054;25.146;2023-03-01T07:59:35;96091.91;;;2.88;100.00
61408;BME280;47274;43.054;25.146;2023-03-01T08:02:01;96087.38;;;2.93;100.00
61408;BME280;47274;43.054;25.146;2023-03-01T08:04:27;96157.94;;;3.47;100.00
61408;BME280;47274;43.054;25.146;2023-03-01T08:06:54;96099.59;;;3.17;100.00
61408;BME280;47274;43.054;25.146;2023-03-01T08:09:24;96169.25;;;3.55;100.00
61408;BME280;47274;43.054;25.146;2023-03-01T08:11:50;96145.41;;;3.44;100.00
61408;BME280;47274;43.054;25.146;2023-03-01T08:14:17;96154.13;;;3.54;100.00
61408;BME280;47274;43.054;25.146;2023-03-01T08:16:43;96090.25;;;3.17;100.00
61408;BME280;47274;43.054;25.146;2023-03-01T08:19:11;96165.38;;;3.64;100.00
61408;BME280;47274;43.054;25.146;2023-03-01T08:21:38;96120.00;;;3.29;100.00
61408;BME280;47274;43.054;25.146;2023-03-01T08:24:05;96106.94;;;3.21;100.00
61408;BME280;47274;43.054;25.146;2023-03-01T08:26:36;96088.75;;;3.15;100.00
61408;BME280;47274;43.054;25.146;2023-03-01T08:29:02;96088.91;;;3.12;100.00
61408;BME280;47274;43.054;25.146;2023-03-01T08:31:35;96160.56;;;3.45;100.00
61408;BME280;47274;43.054;25.146;2023-03-01T08:34:08;96138.69;;;3.28;100.00
61408;BME280;47274;43.054;25.146;2023-03-01T08:36:38;96109.59;;;3.04;100.00
61408;BME280;47274;43.054;25.146;2023-03-01T08:39:06;96131.88;;;3.29;100.00
61408;BME280;47274;43.054;25.146;2023-03-01T08:41:32;96176.16;;;3.53;100.00
61408;BME280;47274;43.054;25.146;2023-03-01T08:43:58;96124.16;;;3.16;100.00
61408;BME280;47274;43.054;25.146;2023-03-01T08:46:26;96139.72;;;3.24;100.00
61408;BME280;47274;43.054;25.146;2023-03-01T08:48:52;96199.47;;;3.60;100.00
61408;BME280;47274;43.054;25.146;2023-03-01T08:51:19;96102.44;;;2.96;100.00
61408;BME280;47274;43.054;25.146;2023-03-01T08:53:46;96152.06;;;3.30;100.00
61408;BME280;47274;43.054;25.146;2023-03-01T08:56:13;96213.34;;;3.69;100.00
61408;BME280;47274;43.054;25.146;2023-03-01T08:58:39;96196.66;;;3.65;100.00
61408;BME280;47274;43.054;25.146;2023-03-01T09:01:15;96115.09;;;3.12;100.00
61408;BME280;47274;43.054;25.146;2023-03-01T09:03:42;96208.38;;;3.67;100.00
61408;BME280;47274;43.054;25.146;2023-03-01T09:06:10;96091.59;;;2.94;100.00
61408;BME280;47274;43.054;25.146;2023-03-01T09:08:41;96100.59;;;2.84;100.00
61408;BME280;47274;43.054;25.146;2023-03-01T09:11:10;96143.69;;;3.14;100.00
61408;BME280;47274;43.054;25.146;2023-03-01T09:13:37;96156.78;;;3.22;100.00
61408;BME280;47274;43.054;25.146;2023-03-01T09:16:06;96112.03;;;2.91;100.00
61408;BME280;47274;43.054;25.146;2023-03-01T09:18:33;96180.94;;;3.44;100.00
61408;BME280;47274;43.054;25.146;2023-03-01T09:21:07;96174.69;;;3.49;100.00
61408;BME280;47274;43.054;25.146;2023-03-01T09:23:36;96164.97;;;3.42;100.00
61408;BME280;47274;43.054;25.146;2023-03-01T09:26:05;96200.00;;;3.65;100.00
61408;BME280;47274;43.054;25.146;2023-03-01T09:28:35;96202.84;;;3.75;100.00
61408;BME280;47274;43.054;25.146;2023-03-01T09:31:02;96155.84;;;3.53;100.00
61408;BME280;47274;43.054;25.146;2023-03-01T09:33:30;96194.41;;;3.74;100.00
61408;BME280;47274;43.054;25.146;2023-03-01T09:36:00;96087.81;;;3.16;100.00
61408;BME280;47274;43.054;25.146;2023-03-01T09:38:27;96139.47;;;3.59;100.00
61408;BME280;47274;43.054;25.146;2023-03-01T09:40:53;96192.53;;;3.92;100.00
61408;BME280;47274;43.054;25.146;2023-03-01T09:46:10;96154.88;;;3.70;100.00
61408;BME280;47274;43.054;25.146;2023-03-01T09:48:48;96185.66;;;3.94;100.00
61408;BME280;47274;43.054;25.146;2023-03-01T09:51:19;96162.41;;;3.72;100.00
61408;BME280;47274;43.054;25.146;2023-03-01T09:53:49;96179.66;;;3.81;100.00
61408;BME280;47274;43.054;25.146;2023-03-01T09:56:22;96192.88;;;3.86;100.00
61408;BME280;47274;43.054;25.146;2023-03-01T10:04:47;96204.50;;;3.90;100.00
61408;BME280;47274;43.054;25.146;2023-03-01T10:09:52;96188.38;;;3.91;100.00
61408;BME280;47274;43.054;25.146;2023-03-01T10:12:20;96188.91;;;3.96;100.00
61408;BME280;47274;43.054;25.146;2023-03-01T10:15:05;96195.53;;;3.99;100.00
61408;BME280;47274;43.054;25.146;2023-03-01T10:17:46;96188.31;;;4.07;100.00
61408;BME280;47274;43.054;25.146;2023-03-01T10:20:26;96202.28;;;4.14;100.00
61408;BME280;47274;43.054;25.146;2023-03-01T10:22:52;96199.63;;;4.16;100.00
61408;BME280;47274;43.054;25.146;2023-03-01T10:25:56;96194.53;;;4.16;100.00
61408;BME280;47274;43.054;25.146;2023-03-01T10:28:43;96184.22;;;4.19;100.00
61408;BME280;47274;43.054;25.146;2023-03-01T10:31:16;96156.91;;;4.08;100.00
61408;BME280;47274;43.054;25.146;2023-03-01T10:33:44;96165.91;;;4.14;100.00
61408;BME280;47274;43.054;25.146;2023-03-01T10:36:10;96170.34;;;4.24;100.00
61408;BME280;47274;43.054;25.146;2023-03-01T10:38:52;96178.31;;;4.33;100.00
61408;BME280;47274;43.054;25.146;2023-03-01T10:41:20;96176.22;;;4.25;100.00
61408;BME280;47274;43.054;25.146;2023-03-01T10:43:51;96143.47;;;4.06;100.00
61408;BME280;47274;43.054;25.146;2023-03-01T10:46:35;96156.09;;;4.08;100.00
61408;BME280;47274;43.054;25.146;2023-03-01T10:49:20;96168.97;;;4.19;100.00
61408;BME280;47274;43.054;25.146;2023-03-01T10:51:49;96142.84;;;4.02;100.00
61408;BME280;47274;43.054;25.146;2023-03-01T10:54:30;96160.81;;;4.14;100.00
61408;BME280;47274;43.054;25.146;2023-03-01T10:57:00;96158.47;;;4.11;100.00
61408;BME280;47274;43.054;25.146;2023-03-01T11:04:35;96100.03;;;3.82;100.00
61408;BME280;47274;43.054;25.146;2023-03-01T11:07:02;96129.88;;;4.07;100.00
61408;BME280;47274;43.054;25.146;2023-03-01T11:09:33;96135.41;;;3.99;100.00
61408;BME280;47274;43.054;25.146;2023-03-01T11:12:14;96151.00;;;4.08;100.00
61408;BME280;47274;43.054;25.146;2023-03-01T11:14:52;96127.44;;;3.77;100.00
61408;BME280;47274;43.054;25.146;2023-03-01T11:17:27;96134.25;;;3.91;100.00
61408;BME280;47274;43.054;25.146;2023-03-01T11:22:46;96131.41;;;4.24;100.00
61408;BME280;47274;43.054;25.146;2023-03-01T11:25:13;96136.69;;;4.21;100.00
61408;BME280;47274;43.054;25.146;2023-03-01T11:27:43;96128.50;;;4.16;100.00
61408;BME280;47274;43.054;25.146;2023-03-01T11:30:27;96099.59;;;4.04;100.00
61408;BME280;47274;43.054;25.146;2023-03-01T11:36:01;96113.97;;;4.32;100.00
61408;BME280;47274;43.054;25.146;2023-03-01T11:38:30;96089.47;;;4.17;100.00
61408;BME280;47274;43.054;25.146;2023-03-01T11:52:18;96104.03;;;4.15;100.00
61408;BME280;47274;43.054;25.146;2023-03-01T12:00:58;96091.41;;;4.13;100.00
61408;BME280;47274;43.054;25.146;2023-03-01T12:08:41;96085.91;;;4.34;100.00
61408;BME280;47274;43.054;25.146;2023-03-01T12:16:23;96088.75;;;4.29;100.00
61408;BME280;47274;43.054;25.146;2023-03-01T12:19:24;96077.66;;;4.30;100.00
61408;BME280;47274;43.054;25.146;2023-03-01T12:33:17;96082.22;;;4.25;100.00
61408;BME280;47274;43.054;25.146;2023-03-01T12:50:04;95987.81;;;3.48;100.00
61408;BME280;47274;43.054;25.146;2023-03-01T12:52:47;96078.81;;;3.97;100.00
61408;BME280;47274;43.054;25.146;2023-03-01T12:55:28;96065.31;;;3.83;100.00
61408;BME280;47274;43.054;25.146;2023-03-01T13:01:19;96071.13;;;3.85;100.00
61408;BME280;47274;43.054;25.146;2023-03-01T13:09:05;96073.38;;;3.89;100.00
61408;BME280;47274;43.054;25.146;2023-03-01T13:11:34;96072.38;;;3.92;100.00
61408;BME280;47274;43.054;25.146;2023-03-01T13:16:52;95953.69;;;3.25;100.00
61408;BME280;47274;43.054;25.146;2023-03-01T13:21:50;96069.84;;;3.92;100.00
61408;BME280;47274;43.054;25.146;2023-03-01T13:24:41;96073.47;;;3.88;100.00
61408;BME280;47274;43.054;25.146;2023-03-01T13:29:48;96043.22;;;3.70;100.00
61408;BME280;47274;43.054;25.146;2023-03-01T13:32:28;96046.56;;;3.71;100.00
61408;BME280;47274;43.054;25.146;2023-03-01T13:34:57;96055.28;;;3.67;100.00
61408;BME280;47274;43.054;25.146;2023-03-01T13:37:29;96072.41;;;3.77;100.00
61408;BME280;47274;43.054;25.146;2023-03-01T13:39:57;96044.56;;;3.62;100.00
61408;BME280;47274;43.054;25.146;2023-03-01T13:42:31;96027.06;;;3.57;100.00
61408;BME280;47274;43.054;25.146;2023-03-01T13:44:59;96029.44;;;3.60;100.00
61408;BME280;47274;43.054;25.146;2023-03-01T13:47:26;96051.91;;;3.66;100.00
61408;BME280;47274;43.054;25.146;2023-03-01T13:50:02;96060.88;;;3.72;100.00
61408;BME280;47274;43.054;25.146;2023-03-01T13:52:43;96020.81;;;3.48;100.00
61408;BME280;47274;43.054;25.146;2023-03-01T13:55:19;96052.72;;;3.67;100.00
61408;BME280;47274;43.054;25.146;2023-03-01T13:57:59;96064.16;;;3.74;100.00
61408;BME280;47274;43.054;25.146;2023-03-01T14:00:30;96034.97;;;3.52;100.00
61408;BME280;47274;43.054;25.146;2023-03-01T14:03:08;96051.47;;;3.74;100.00
61408;BME280;47274;43.054;25.146;2023-03-01T14:05:35;96042.94;;;3.75;100.00
61408;BME280;47274;43.054;25.146;2023-03-01T14:08:03;95981.88;;;3.35;100.00
61408;BME280;47274;43.054;25.146;2023-03-01T14:10:36;95944.72;;;3.05;100.00
61408;BME280;47274;43.054;25.146;2023-03-01T14:16:30;96045.38;;;3.76;100.00
61408;BME280;47274;43.054;25.146;2023-03-01T14:19:23;96014.38;;;3.57;100.00
61408;BME280;47274;43.054;25.146;2023-03-01T14:24:47;96028.00;;;3.56;100.00
61408;BME280;47274;43.054;25.146;2023-03-01T14:27:15;96014.94;;;3.48;100.00
61408;BME280;47274;43.054;25.146;2023-03-01T14:29:42;96011.84;;;3.43;100.00
61408;BME280;47274;43.054;25.146;2023-03-01T14:32:18;96027.06;;;3.57;100.00
61408;BME280;47274;43.054;25.146;2023-03-01T14:34:47;96028.34;;;3.50;100.00
61408;BME280;47274;43.054;25.146;2023-03-01T14:39:52;96007.31;;;3.33;100.00
61408;BME280;47274;43.054;25.146;2023-03-01T14:42:20;96037.31;;;3.55;100.00
61408;BME280;47274;43.054;25.146;2023-03-01T14:44:48;96029.50;;;3.59;100.00
61408;BME280;47274;43.054;25.146;2023-03-01T14:47:23;96021.44;;;3.52;100.00
61408;BME280;47274;43.054;25.146;2023-03-01T14:49:56;96025.81;;;3.50;100.00
61408;BME280;47274;43.054;25.146;2023-03-01T14:52:34;96036.41;;;3.56;100.00
61408;BME280;47274;43.054;25.146;2023-03-01T14:55:05;96010.03;;;3.30;100.00
61408;BME280;47274;43.054;25.146;2023-03-01T14:57:33;96052.75;;;3.52;100.00